Terminal Aerodrome Forecast
Issued by NWS Wichita, KS

Home | Current Version | Previous Version | Text Only | Print | Product List | Glossary Off
Versions: 1 2 3 4 5 6 7 8 9 10 11 12 13 14 15 16 17 18 19 20

000
FTUS43 KICT 160500
TAFICT
TAF
KICT 160522Z 1606/1706 17016G21KT P6SM BKN250 WS020/17045KT
     FM161500 19027G36KT P6SM SCT250
     FM161900 23018G28KT P6SM BKN250
     FM170000 18012KT P6SM BKN250=

USA.gov is the U.S. government's official web portal to all federal, state and local government web resources and services.